createdAt,value
2023-02-11T00:01:26.979Z,25.63
2023-02-11T00:03:57.142Z,27.85
2023-02-11T00:06:25.091Z,24.98
2023-02-11T00:08:51.833Z,32.20
2023-02-11T00:11:20.330Z,31.20
2023-02-11T00:13:48.376Z,36.17
2023-02-11T00:16:20.626Z,27.48
2023-02-11T00:18:49.480Z,30.35
2023-02-11T00:21:27.231Z,36.45
2023-02-11T00:23:54.787Z,23.15
2023-02-11T00:26:23.892Z,34.15
2023-02-11T00:28:52.890Z,36.70
2023-02-11T00:31:22.600Z,22.15
2023-02-11T00:33:49.528Z,28.85
2023-02-11T00:36:19.152Z,35.05
2023-02-11T00:38:47.836Z,39.08
2023-02-11T00:41:14.988Z,27.73
2023-02-11T00:43:42.249Z,33.35
2023-02-11T00:46:09.640Z,27.52
2023-02-11T00:48:37.922Z,30.45
2023-02-11T00:51:05.131Z,38.17
2023-02-11T00:53:32.587Z,30.77
2023-02-11T00:55:59.398Z,29.95
2023-02-11T00:58:26.166Z,29.55
2023-02-11T01:00:53.769Z,30.15
2023-02-11T01:03:20.519Z,37.65
2023-02-11T01:05:49.342Z,28.10
2023-02-11T01:08:16.411Z,36.05
2023-02-11T01:10:43.090Z,33.58
2023-02-11T01:13:10.332Z,32.28
2023-02-11T01:15:37.439Z,34.00
2023-02-11T01:18:06.042Z,35.60
2023-02-11T01:20:33.322Z,27.10
2023-02-11T01:23:01.894Z,23.92
2023-02-11T01:25:31.601Z,36.58
2023-02-11T01:27:58.337Z,33.25
2023-02-11T01:30:25.236Z,42.95
2023-02-11T01:32:51.919Z,33.95
2023-02-11T01:35:19.182Z,30.35
2023-02-11T01:37:46.209Z,35.63
2023-02-11T01:40:17.316Z,30.45
2023-02-11T01:42:44.342Z,36.38
2023-02-11T01:45:57.173Z,34.58
2023-02-11T01:48:27.520Z,41.25
2023-02-11T01:51:01.191Z,28.25
2023-02-11T01:53:29.742Z,31.40
2023-02-11T01:55:58.954Z,38.53
2023-02-11T01:58:27.081Z,38.83
2023-02-11T02:00:54.650Z,33.67
2023-02-11T02:03:24.465Z,46.78
2023-02-11T02:05:59.111Z,32.22
2023-02-11T02:08:31.541Z,39.67
2023-02-11T02:11:00.044Z,34.15
2023-02-11T02:13:28.146Z,42.42
2023-02-11T02:15:56.790Z,45.42
2023-02-11T02:18:35.927Z,39.00
2023-02-11T02:21:53.520Z,35.05
2023-02-11T02:24:49.548Z,34.75
2023-02-11T02:27:29.582Z,40.17
2023-02-11T02:30:25.363Z,36.25
2023-02-11T02:33:07.973Z,41.53
2023-02-11T02:35:47.310Z,34.33
2023-02-11T02:38:19.189Z,35.63
2023-02-11T02:40:50.762Z,37.72
2023-02-11T02:43:18.422Z,35.53
2023-02-11T02:45:45.497Z,41.00
2023-02-11T02:48:26.573Z,36.13
2023-02-11T02:51:04.634Z,39.28
2023-02-11T02:53:45.675Z,47.92
2023-02-11T02:56:19.875Z,43.90
2023-02-11T02:58:59.804Z,48.90
2023-02-11T03:01:36.563Z,51.75
2023-02-11T03:04:17.452Z,53.13
2023-02-11T03:06:51.863Z,45.97
2023-02-11T03:09:26.168Z,40.92
2023-02-11T03:11:53.117Z,51.88
2023-02-11T03:14:22.082Z,48.50
2023-02-11T03:16:52.040Z,47.83
2023-02-11T03:19:24.187Z,50.33
2023-02-11T03:21:52.085Z,51.83
2023-02-11T03:24:24.785Z,57.33
2023-02-11T03:26:54.395Z,48.85
2023-02-11T03:29:30.992Z,46.00
2023-02-11T03:32:05.130Z,57.85
2023-02-11T03:34:40.145Z,48.83
2023-02-11T03:37:11.755Z,49.03
2023-02-11T03:39:44.212Z,53.80
2023-02-11T03:42:12.934Z,48.78
2023-02-11T03:44:45.028Z,54.58
2023-02-11T03:47:16.558Z,53.03
2023-02-11T03:49:46.536Z,55.35
2023-02-11T03:52:15.840Z,56.20
2023-02-11T03:54:48.154Z,56.60
2023-02-11T03:57:15.215Z,43.65
2023-02-11T04:00:00.119Z,48.50
2023-02-11T04:02:31.880Z,54.28
2023-02-11T04:05:00.248Z,42.83
2023-02-11T04:07:27.840Z,56.47
2023-02-11T04:09:56.115Z,50.05
2023-02-11T04:12:22.984Z,44.40
2023-02-11T04:14:49.792Z,49.85
2023-02-11T04:17:16.592Z,44.83
2023-02-11T04:19:43.320Z,46.65
2023-02-11T04:22:11.450Z,49.35
2023-02-11T04:24:38.373Z,49.95
2023-02-11T04:27:05.281Z,48.35
2023-02-11T04:29:32.120Z,51.28
2023-02-11T04:31:58.925Z,45.20
2023-02-11T04:34:26.026Z,46.22
2023-02-11T04:36:52.797Z,45.20
2023-02-11T04:39:21.007Z,60.53
2023-02-11T04:41:47.805Z,44.60
2023-02-11T04:44:17.042Z,48.30
2023-02-11T04:46:45.721Z,50.88
2023-02-11T04:49:13.558Z,40.00
2023-02-11T04:51:40.683Z,51.33
2023-02-11T04:54:07.763Z,45.15
2023-02-11T04:56:35.836Z,43.10
2023-02-11T04:59:02.854Z,42.78
2023-02-11T05:01:31.038Z,42.88
2023-02-11T05:03:58.143Z,52.78
2023-02-11T05:06:25.262Z,48.70
2023-02-11T05:08:51.998Z,45.15
2023-02-11T05:11:20.639Z,40.88
2023-02-11T05:13:48.957Z,42.97
2023-02-11T05:16:16.930Z,44.25
2023-02-11T05:18:44.929Z,45.20
2023-02-11T05:21:14.289Z,49.17
2023-02-11T05:23:41.188Z,43.05
2023-02-11T05:26:08.949Z,38.83
2023-02-11T05:28:35.985Z,39.80
2023-02-11T05:31:04.808Z,55.38
2023-02-11T05:33:31.901Z,49.45
2023-02-11T05:35:59.250Z,40.22
2023-02-11T05:38:26.156Z,45.40
2023-02-11T05:40:52.927Z,46.42
2023-02-11T05:43:19.840Z,39.70
2023-02-11T05:45:46.697Z,37.00
2023-02-11T05:48:15.661Z,36.65
2023-02-11T05:50:42.806Z,34.75
2023-02-11T05:53:09.617Z,45.17
2023-02-11T05:55:36.801Z,38.55
2023-02-11T05:58:03.830Z,44.15
2023-02-11T06:00:33.070Z,39.60
2023-02-11T06:03:00.385Z,40.72
2023-02-11T06:05:28.654Z,42.42
2023-02-11T06:07:55.464Z,44.22
2023-02-11T06:10:22.595Z,37.60
2023-02-11T06:12:49.381Z,38.60
2023-02-11T06:15:16.518Z,35.97
2023-02-11T06:17:43.211Z,37.10
2023-02-11T06:20:11.029Z,35.75
2023-02-11T06:22:39.174Z,37.55
2023-02-11T06:25:06.642Z,38.55
2023-02-11T06:27:33.421Z,41.88
2023-02-11T06:30:00.542Z,36.95
2023-02-11T06:32:45.210Z,34.17
2023-02-11T06:35:13.567Z,39.00
2023-02-11T06:37:42.298Z,40.50
2023-02-11T06:40:09.905Z,37.50
2023-02-11T06:42:37.587Z,42.95
2023-02-11T06:45:04.837Z,40.55
2023-02-11T06:47:32.196Z,42.83
2023-02-11T06:50:01.871Z,37.00
2023-02-11T06:52:28.739Z,39.22
2023-02-11T06:54:56.912Z,47.13
2023-02-11T06:57:23.940Z,38.08
2023-02-11T06:59:51.015Z,37.72
2023-02-11T07:02:20.645Z,44.33
2023-02-11T07:04:48.038Z,35.30
2023-02-11T07:07:15.292Z,35.88
2023-02-11T07:09:42.245Z,43.22
2023-02-11T07:12:10.982Z,40.40
2023-02-11T07:14:39.502Z,34.53
2023-02-11T07:17:06.220Z,37.08
2023-02-11T07:19:34.228Z,43.60
2023-02-11T07:22:02.855Z,41.28
2023-02-11T07:24:29.624Z,39.20
2023-02-11T07:26:56.495Z,45.70
2023-02-11T07:29:24.640Z,40.88
2023-02-11T07:31:51.488Z,42.28
2023-02-11T07:34:18.597Z,36.67
2023-02-11T07:36:46.269Z,39.70
2023-02-11T07:39:13.126Z,35.40
2023-02-11T07:41:41.132Z,38.03
2023-02-11T07:44:07.952Z,33.60
2023-02-11T07:46:36.207Z,44.90
2023-02-11T07:49:03.416Z,35.17
2023-02-11T07:51:30.990Z,36.33
2023-02-11T07:54:00.110Z,37.28
2023-02-11T07:56:28.727Z,33.70
2023-02-11T07:58:56.815Z,38.63
2023-02-11T08:01:25.517Z,34.05
2023-02-11T08:03:55.064Z,40.30
2023-02-11T08:06:24.374Z,38.78
2023-02-11T08:08:51.638Z,29.15
2023-02-11T08:11:20.858Z,28.73
2023-02-11T08:13:48.372Z,32.90
2023-02-11T08:16:19.652Z,35.45
2023-02-11T08:21:16.358Z,33.35
2023-02-11T08:23:44.960Z,39.70
2023-02-11T08:26:13.452Z,37.97
2023-02-11T08:28:42.457Z,39.60
2023-02-11T08:31:11.292Z,39.42
2023-02-11T08:33:38.758Z,44.33
2023-02-11T08:36:08.752Z,40.95
2023-02-11T08:38:37.754Z,35.63
2023-02-11T08:41:05.218Z,33.20
2023-02-11T08:43:32.167Z,33.05
2023-02-11T08:46:01.877Z,36.25
2023-02-11T08:48:30.246Z,42.55
2023-02-11T08:50:58.329Z,38.00
2023-02-11T08:53:27.785Z,47.65
2023-02-11T08:55:58.372Z,38.67
2023-02-11T08:58:27.811Z,39.00
2023-02-11T09:00:55.219Z,35.40
2023-02-11T09:03:22.055Z,32.17
2023-02-11T09:05:50.076Z,28.08
2023-02-11T09:08:18.091Z,31.48
2023-02-11T09:10:44.909Z,36.38
2023-02-11T09:13:13.260Z,32.35
2023-02-11T09:15:40.330Z,32.05
2023-02-11T09:18:07.084Z,32.05
2023-02-11T09:20:33.964Z,29.83
2023-02-11T09:23:02.106Z,26.85
2023-02-11T09:25:29.006Z,32.22
2023-02-11T09:27:55.860Z,30.75
2023-02-11T09:30:24.429Z,33.33
2023-02-11T09:32:51.200Z,27.23
2023-02-11T09:35:18.540Z,28.50
2023-02-11T09:37:45.809Z,33.05
2023-02-11T09:40:14.413Z,34.10
2023-02-11T09:42:46.707Z,28.13
2023-02-11T09:45:19.402Z,27.30
2023-02-11T09:47:53.960Z,25.15
2023-02-11T09:50:29.361Z,33.05
2023-02-11T09:53:00.570Z,24.38
2023-02-11T09:55:29.757Z,27.50
2023-02-11T09:57:57.965Z,22.35
2023-02-11T10:00:30.948Z,30.23
2023-02-11T10:03:24.375Z,24.25
2023-02-11T10:06:09.744Z,24.45
2023-02-11T10:08:46.707Z,24.88
2023-02-11T10:11:31.342Z,20.80
2023-02-11T10:14:07.457Z,24.42
2023-02-11T10:16:51.619Z,24.83
2023-02-11T10:19:43.509Z,15.77
2023-02-11T10:22:14.926Z,18.92
2023-02-11T10:27:17.774Z,16.60
2023-02-11T10:29:49.284Z,26.00
2023-02-11T10:32:27.741Z,21.23
2023-02-11T10:34:59.194Z,23.70
2023-02-11T10:37:25.986Z,15.95
2023-02-11T10:39:53.128Z,16.65
2023-02-11T10:42:21.464Z,17.95
2023-02-11T10:44:57.686Z,15.40
2023-02-11T10:47:31.576Z,19.23
2023-02-11T10:50:22.580Z,19.77
2023-02-11T10:52:50.186Z,15.73
2023-02-11T10:55:19.275Z,14.65
2023-02-11T10:57:53.058Z,14.23
2023-02-11T11:00:29.225Z,17.25
2023-02-11T11:02:58.511Z,17.85
2023-02-11T11:05:31.673Z,12.00
2023-02-11T11:08:00.500Z,14.18
2023-02-11T11:10:46.721Z,15.90
2023-02-11T11:13:38.302Z,15.38
2023-02-11T11:16:30.536Z,10.50
2023-02-11T11:19:24.394Z,18.33
2023-02-11T11:22:01.185Z,12.45
2023-02-11T11:24:41.909Z,18.25
2023-02-11T11:27:18.443Z,12.13
2023-02-11T11:29:53.225Z,12.20
2023-02-11T11:32:40.445Z,12.05
2023-02-11T11:35:24.084Z,12.23
2023-02-11T11:38:15.865Z,13.15
2023-02-11T11:41:03.751Z,13.45
2023-02-11T11:43:38.377Z,18.25
2023-02-11T11:46:05.893Z,14.55
2023-02-11T11:48:55.503Z,13.95
2023-02-11T11:51:30.135Z,13.43
2023-02-11T11:54:08.853Z,13.60
2023-02-11T11:56:41.995Z,12.75
2023-02-11T11:59:13.221Z,10.95
2023-02-11T12:02:00.424Z,13.65
2023-02-11T12:05:03.346Z,17.75
2023-02-11T12:07:59.107Z,14.10
2023-02-11T12:14:03.595Z,12.10
2023-02-11T12:16:53.791Z,12.15
2023-02-11T12:19:59.455Z,13.80
2023-02-11T12:22:59.016Z,12.25
2023-02-11T12:25:36.964Z,13.80
2023-02-11T12:28:23.818Z,16.52
2023-02-11T12:31:13.280Z,17.33
2023-02-11T12:34:28.500Z,11.13
2023-02-11T12:37:26.086Z,13.57
2023-02-11T12:40:07.349Z,10.18
2023-02-11T12:42:52.095Z,12.38
2023-02-11T12:45:45.176Z,11.82
2023-02-11T12:48:48.436Z,23.92
2023-02-11T13:01:43.463Z,12.93
2023-02-11T13:19:19.039Z,10.93
2023-02-11T13:22:16.099Z,7.57
2023-02-11T13:24:47.141Z,18.13
2023-02-11T13:27:29.065Z,17.95
2023-02-11T13:30:24.190Z,16.98
2023-02-11T13:33:19.592Z,16.42
2023-02-11T13:36:11.308Z,17.23
2023-02-11T13:38:38.718Z,24.25
2023-02-11T13:41:16.335Z,17.17
2023-02-11T13:43:58.293Z,14.35
2023-02-11T13:46:48.078Z,14.55
2023-02-11T13:49:25.367Z,21.10
2023-02-11T13:51:58.517Z,13.77
2023-02-11T13:54:36.442Z,13.60
2023-02-11T13:57:35.486Z,11.63
2023-02-11T14:00:28.321Z,9.82
2023-02-11T14:03:26.590Z,12.93
2023-02-11T14:06:17.773Z,11.07
2023-02-11T14:09:14.967Z,9.05
2023-02-11T14:11:50.858Z,19.85
2023-02-11T14:14:22.736Z,11.35
2023-02-11T14:17:26.956Z,17.25
2023-02-11T14:20:06.874Z,14.82
2023-02-11T14:22:52.578Z,9.88
2023-02-11T14:25:26.224Z,15.98
2023-02-11T14:28:01.460Z,14.35
2023-02-11T14:31:02.176Z,12.60
2023-02-11T14:33:51.651Z,15.23
2023-02-11T14:36:46.421Z,17.60
2023-02-11T14:39:34.825Z,16.40
2023-02-11T14:42:05.337Z,12.43
2023-02-11T14:44:38.318Z,14.43
2023-02-11T14:47:08.214Z,18.17
2023-02-11T14:49:45.448Z,9.50
2023-02-11T14:52:26.653Z,15.23
2023-02-11T14:55:05.124Z,15.55
2023-02-11T14:57:32.111Z,13.23
2023-02-11T15:00:04.022Z,15.13
2023-02-11T15:02:35.054Z,20.17
2023-02-11T15:05:28.389Z,11.35
2023-02-11T15:08:18.390Z,19.25
2023-02-11T15:10:47.438Z,15.93
2023-02-11T15:13:20.103Z,18.38
2023-02-11T15:15:53.966Z,11.65
2023-02-11T15:18:33.606Z,11.43
2023-02-11T15:21:00.895Z,15.85
2023-02-11T15:23:31.646Z,16.42
2023-02-11T15:26:04.578Z,16.67
2023-02-11T15:28:48.248Z,19.00
2023-02-11T15:31:25.648Z,18.88
2023-02-11T15:37:11.057Z,20.08
2023-02-11T15:40:05.289Z,26.27
2023-02-11T15:42:44.047Z,12.32
2023-02-11T15:45:57.008Z,15.30
2023-02-11T15:51:31.346Z,12.00
2023-02-11T15:54:06.235Z,14.38
2023-02-11T15:59:56.015Z,18.45
2023-02-11T16:03:29.547Z,18.58
2023-02-11T16:10:22.656Z,21.17
2023-02-11T16:13:38.402Z,11.32
2023-02-11T16:16:36.617Z,21.85
2023-02-11T16:22:28.299Z,16.52
2023-02-11T16:28:27.582Z,18.73
2023-02-11T16:31:09.386Z,17.17
2023-02-11T16:34:30.783Z,18.27
2023-02-11T16:37:08.488Z,18.85
2023-02-11T16:39:42.622Z,19.42
2023-02-11T16:45:47.846Z,13.85
2023-02-11T16:55:28.442Z,14.80
2023-02-11T16:58:41.404Z,18.08
2023-02-11T17:07:43.101Z,11.00
2023-02-11T17:10:16.399Z,16.42
2023-02-11T17:12:44.774Z,19.10
2023-02-11T17:15:14.444Z,22.10
2023-02-11T17:17:46.844Z,14.25
2023-02-11T17:20:39.358Z,17.42
2023-02-11T17:23:14.888Z,21.92
2023-02-11T17:25:41.662Z,16.35
2023-02-11T17:28:13.436Z,19.60
2023-02-11T17:30:48.901Z,16.38
2023-02-11T17:33:17.112Z,13.38
2023-02-11T17:35:53.078Z,19.08
2023-02-11T17:38:25.799Z,15.40
2023-02-11T17:41:09.290Z,18.05
2023-02-11T17:43:44.729Z,20.92
2023-02-11T17:46:17.083Z,14.38
2023-02-11T17:48:53.415Z,15.30
2023-02-11T17:51:39.761Z,15.80
2023-02-11T17:54:10.628Z,17.38
2023-02-11T17:56:42.547Z,13.63
2023-02-11T17:59:14.584Z,13.60
2023-02-11T18:01:45.621Z,14.80
2023-02-11T18:04:24.790Z,12.82
2023-02-11T18:06:54.638Z,21.20
2023-02-11T18:09:34.963Z,27.55
2023-02-11T18:12:46.196Z,16.25
2023-02-11T18:15:19.020Z,15.77
2023-02-11T18:17:50.504Z,17.45
2023-02-11T18:20:20.260Z,20.65
2023-02-11T18:22:47.800Z,24.48
2023-02-11T18:25:18.109Z,17.95
2023-02-11T18:27:45.830Z,15.75
2023-02-11T18:30:20.613Z,17.63
2023-02-11T18:32:49.251Z,11.65
2023-02-11T18:35:16.708Z,11.77
2023-02-11T18:37:43.659Z,11.02
2023-02-11T18:40:16.481Z,20.73
2023-02-11T18:42:55.479Z,17.05
2023-02-11T18:45:32.043Z,14.55
2023-02-11T18:48:01.722Z,20.35
2023-02-11T18:50:32.520Z,22.85
2023-02-11T18:53:09.719Z,16.40
2023-02-11T18:59:15.217Z,20.73
2023-02-11T19:02:03.391Z,29.55
2023-02-11T19:04:48.398Z,20.15
2023-02-11T19:07:22.061Z,18.27
2023-02-11T19:10:02.781Z,19.52
2023-02-11T19:12:34.478Z,12.10
2023-02-11T19:15:19.490Z,16.67
2023-02-11T19:17:59.280Z,12.05
2023-02-11T19:20:26.480Z,16.60
2023-02-11T19:23:00.963Z,15.27
2023-02-11T19:25:32.936Z,20.63
2023-02-11T19:28:15.456Z,11.85
2023-02-11T19:30:48.370Z,22.77
2023-02-11T19:33:19.374Z,16.77
2023-02-11T19:35:49.518Z,20.88
2023-02-11T19:38:16.585Z,13.85
2023-02-11T19:40:43.429Z,19.23
2023-02-11T19:43:12.470Z,16.10
2023-02-11T19:45:39.325Z,21.05
2023-02-11T19:48:06.218Z,13.48
2023-02-11T19:50:34.961Z,19.83
2023-02-11T19:53:04.366Z,14.02
2023-02-11T19:55:34.154Z,11.90
2023-02-11T19:58:01.199Z,18.80
2023-02-11T20:00:28.537Z,15.55
2023-02-11T20:02:55.675Z,16.55
2023-02-11T20:05:22.611Z,12.15
2023-02-11T20:07:50.895Z,13.95
2023-02-11T20:10:17.895Z,14.73
2023-02-11T20:12:45.861Z,23.60
2023-02-11T20:15:12.908Z,15.20
2023-02-11T20:17:41.163Z,20.95
2023-02-11T20:20:11.152Z,20.10
2023-02-11T20:22:38.222Z,23.00
2023-02-11T20:25:07.730Z,23.52
2023-02-11T20:27:37.456Z,15.43
2023-02-11T20:30:07.171Z,19.98
2023-02-11T20:32:39.146Z,16.60
2023-02-11T20:35:08.489Z,15.48
2023-02-11T20:37:38.686Z,15.77
2023-02-11T20:40:15.177Z,18.80
2023-02-11T20:42:42.096Z,18.05
2023-02-11T20:45:12.107Z,24.10
2023-02-11T20:47:53.349Z,24.13
2023-02-11T20:50:24.457Z,15.30
2023-02-11T20:52:51.500Z,17.65
2023-02-11T20:55:27.135Z,25.08
2023-02-11T20:57:58.648Z,19.58
2023-02-11T21:00:26.409Z,19.10
2023-02-11T21:02:58.238Z,23.58
2023-02-11T21:05:26.669Z,21.17
2023-02-11T21:07:54.177Z,18.13
2023-02-11T21:10:22.721Z,16.05
2023-02-11T21:12:50.050Z,15.15
2023-02-11T21:15:18.221Z,29.95
2023-02-11T21:17:45.360Z,21.80
2023-02-11T21:20:16.403Z,17.35
2023-02-11T21:22:46.134Z,13.10
2023-02-11T21:25:13.058Z,15.85
2023-02-11T21:27:42.278Z,19.27
2023-02-11T21:30:09.980Z,15.38
2023-02-11T21:32:36.829Z,18.25
2023-02-11T21:35:03.676Z,22.45
2023-02-11T21:37:30.509Z,14.10
2023-02-11T21:39:57.675Z,24.80
2023-02-11T21:42:24.820Z,29.58
2023-02-11T21:44:53.658Z,23.52
2023-02-11T21:47:20.479Z,27.25
2023-02-11T21:49:47.342Z,19.27
2023-02-11T21:52:16.688Z,19.13
2023-02-11T21:54:44.822Z,24.23
2023-02-11T21:57:11.857Z,15.95
2023-02-11T21:59:38.633Z,30.30
2023-02-11T22:02:07.070Z,24.42
2023-02-11T22:04:34.006Z,21.58
2023-02-11T22:07:00.842Z,21.42
2023-02-11T22:09:27.623Z,19.95
2023-02-11T22:11:54.678Z,18.20
2023-02-11T22:14:22.018Z,19.92
2023-02-11T22:16:53.659Z,25.77
2023-02-11T22:19:22.698Z,37.17
2023-02-11T22:21:49.650Z,16.10
2023-02-11T22:24:16.359Z,23.95
2023-02-11T22:26:43.271Z,27.00
2023-02-11T22:29:10.134Z,19.27
2023-02-11T22:31:37.365Z,25.85
2023-02-11T22:34:05.563Z,30.02
2023-02-11T22:36:36.742Z,21.45
2023-02-11T22:39:05.693Z,29.85
2023-02-11T22:41:35.660Z,22.38
2023-02-11T22:44:02.701Z,22.35
2023-02-11T22:46:29.674Z,26.10
2023-02-11T22:48:56.966Z,22.17
2023-02-11T22:51:25.282Z,22.35
2023-02-11T22:53:55.842Z,32.90
2023-02-11T22:56:24.017Z,23.65
2023-02-11T22:58:51.946Z,42.20
2023-02-11T23:01:19.796Z,24.27
2023-02-11T23:03:46.739Z,26.17
2023-02-11T23:06:16.713Z,26.90
2023-02-11T23:08:43.981Z,26.98
2023-02-11T23:11:15.940Z,38.78
2023-02-11T23:13:44.806Z,25.98
2023-02-11T23:16:14.616Z,27.05
2023-02-11T23:18:43.429Z,30.67
2023-02-11T23:21:12.872Z,31.40
2023-02-11T23:23:40.298Z,38.53
2023-02-11T23:26:10.478Z,33.03
2023-02-11T23:28:39.051Z,31.42
2023-02-11T23:31:14.056Z,35.67
2023-02-11T23:33:41.780Z,36.72
2023-02-11T23:36:09.251Z,44.13
2023-02-11T23:38:36.264Z,44.17
2023-02-11T23:41:03.781Z,32.33
2023-02-11T23:43:32.290Z,35.55
2023-02-11T23:46:00.782Z,44.35
2023-02-11T23:48:28.378Z,30.33
2023-02-11T23:50:55.284Z,39.10
2023-02-11T23:53:22.063Z,35.80
2023-02-11T23:55:49.423Z,55.80
2023-02-11T23:58:16.448Z,33.65
